Time;durP1;ratioP1;P1;durP2;ratioP2;P2;SDS_P1;SDS_P2;PMS_P1;PMS_P2;Temp;Humidity;BMP_temperature;BMP_pressure;BME280_temperature;BME280_humidity;BME280_pressure;Samples;Min_cycle;Max_cycle;Signal;HPM_P1;HPM_P2
2023/10/14 00:01:14;;;;;;;18.90;9.07;;;;;;;;;;5085809;28;20455;-79
2023/10/14 00:03:42;;;;;;;10.80;7.07;;;;;;;;;;5084929;28;20479;-80
2023/10/14 00:06:11;;;;;;;10.93;6.90;;;;;;;;;;5082625;28;20460;-81
2023/10/14 00:08:54;;;;;;;12.13;7.50;;;;;;;;;;5084527;28;20550;-81
2023/10/14 00:11:22;;;;;;;15.30;6.87;;;;;;;;;;5084985;28;20456;-81
2023/10/14 00:13:52;;;;;;;15.20;6.93;;;;;;;;;;5084695;28;20461;-81
2023/10/14 00:16:29;;;;;;;15.00;8.00;;;;;;;;;;5086748;28;20787;-80
2023/10/14 00:18:58;;;;;;;9.90;7.10;;;;;;;;;;5088175;28;20450;-81
2023/10/14 00:21:26;;;;;;;12.47;7.70;;;;;;;;;;5087761;28;20449;-81
2023/10/14 00:23:57;;;;;;;11.47;6.57;;;;;;;;;;5084773;28;20467;-80
2023/10/14 00:26:25;;;;;;;10.57;6.07;;;;;;;;;;5083385;28;20484;-80
2023/10/14 00:29:00;;;;;;;8.00;5.90;;;;;;;;;;5086015;28;20495;-79
2023/10/14 00:31:28;;;;;;;12.50;6.07;;;;;;;;;;5086238;28;20452;-79
2023/10/14 00:33:56;;;;;;;12.53;6.30;;;;;;;;;;5084134;28;20459;-79
2023/10/14 00:36:30;;;;;;;9.40;5.27;;;;;;;;;;5085371;28;20460;-79
2023/10/14 00:39:00;;;;;;;10.90;5.80;;;;;;;;;;5084691;28;20452;-80
2023/10/14 00:41:28;;;;;;;14.23;5.17;;;;;;;;;;5085441;28;20513;-80
2023/10/14 00:43:56;;;;;;;6.93;4.67;;;;;;;;;;5084797;28;20513;-81
2023/10/14 00:46:31;;;;;;;7.03;4.13;;;;;;;;;;5085037;28;20541;-81
2023/10/14 00:49:00;;;;;;;10.10;2.93;;;;;;;;;;5086529;28;20495;-82
2023/10/14 00:51:27;;;;;;;6.90;4.30;;;;;;;;;;5085549;28;20546;-80
2023/10/14 00:54:01;;;;;;;4.33;2.80;;;;;;;;;;5083416;28;20486;-79
2023/10/14 00:56:31;;;;;;;7.07;3.50;;;;;;;;;;5083000;28;20460;-79
2023/10/14 00:58:59;;;;;;;7.57;3.20;;;;;;;;;;5085702;28;20476;-79
2023/10/14 01:01:32;;;;;;;8.17;3.50;;;;;;;;;;5085150;28;20524;-80
2023/10/14 01:04:08;;;;;;;4.70;1.60;;;;;;;;;;5083867;28;20495;-80
2023/10/14 01:06:53;;;;;;;5.80;1.70;;;;;;;;;;5082118;28;20511;-79
2023/10/14 01:09:30;;;;;;;5.47;1.60;;;;;;;;;;5085885;28;20480;-79
2023/10/14 01:12:03;;;;;;;3.50;1.20;;;;;;;;;;5083388;28;20528;-79
2023/10/14 01:14:33;;;;;;;4.23;1.20;;;;;;;;;;5084811;28;20453;-80
2023/10/14 01:17:06;;;;;;;6.03;1.50;;;;;;;;;;5084850;28;20436;-80
2023/10/14 01:19:37;;;;;;;3.30;0.90;;;;;;;;;;5084176;28;20480;-79
2023/10/14 01:22:06;;;;;;;2.47;0.93;;;;;;;;;;5078417;28;20461;-80
2023/10/14 01:24:39;;;;;;;5.57;1.40;;;;;;;;;;5063812;28;20527;-79
2023/10/14 01:27:07;;;;;;;1.80;0.80;;;;;;;;;;5062952;28;20460;-81
2023/10/14 01:29:39;;;;;;;1.90;0.90;;;;;;;;;;5063965;28;20517;-81
2023/10/14 01:32:24;;;;;;;3.47;1.03;;;;;;;;;;5067755;28;20458;-80
2023/10/14 01:34:56;;;;;;;4.67;1.20;;;;;;;;;;5072799;28;20461;-79
2023/10/14 01:37:26;;;;;;;2.97;0.93;;;;;;;;;;5072955;28;20699;-81
2023/10/14 01:40:08;;;;;;;4.47;1.40;;;;;;;;;;5070946;28;20444;-82
2023/10/14 01:42:36;;;;;;;1.83;0.90;;;;;;;;;;5071840;28;20448;-80
2023/10/14 01:45:07;;;;;;;2.43;0.80;;;;;;;;;;5070545;28;20480;-81
2023/10/14 01:47:43;;;;;;;2.80;1.00;;;;;;;;;;5071347;28;20445;-80
2023/10/14 01:50:20;;;;;;;5.77;1.10;;;;;;;;;;5071844;28;20460;-83
2023/10/14 01:52:52;;;;;;;1.60;0.70;;;;;;;;;;5072185;28;20484;-82
2023/10/14 01:55:21;;;;;;;4.80;1.00;;;;;;;;;;5071976;28;20469;-80
2023/10/14 01:57:49;;;;;;;4.13;1.13;;;;;;;;;;5071764;28;20462;-79
2023/10/14 02:00:25;;;;;;;2.40;1.17;;;;;;;;;;5068356;28;20445;-80
2023/10/14 02:03:05;;;;;;;4.20;0.87;;;;;;;;;;5069522;28;20531;-79
2023/10/14 02:05:34;;;;;;;2.17;0.90;;;;;;;;;;5071126;28;20480;-80
2023/10/14 02:08:02;;;;;;;2.87;1.07;;;;;;;;;;5067714;28;20586;-80
2023/10/14 02:10:35;;;;;;;5.43;1.20;;;;;;;;;;5070613;28;20460;-79
2023/10/14 02:13:03;;;;;;;3.83;0.90;;;;;;;;;;5072691;28;20481;-79
2023/10/14 02:15:30;;;;;;;4.47;1.13;;;;;;;;;;5067156;28;20899;-81
2023/10/14 02:17:58;;;;;;;4.83;1.00;;;;;;;;;;5069992;28;20491;-80
2023/10/14 02:20:28;;;;;;;2.17;0.80;;;;;;;;;;5068572;28;20461;-80
2023/10/14 02:22:57;;;;;;;2.77;0.90;;;;;;;;;;5072431;28;20445;-79
2023/10/14 02:25:27;;;;;;;2.57;1.20;;;;;;;;;;5073442;28;20500;-82
2023/10/14 02:27:56;;;;;;;3.90;1.07;;;;;;;;;;5072015;28;20459;-79
2023/10/14 02:30:24;;;;;;;2.17;1.27;;;;;;;;;;5071697;28;20483;-80
2023/10/14 02:32:51;;;;;;;3.43;1.10;;;;;;;;;;5067677;28;20453;-80
2023/10/14 02:35:19;;;;;;;4.33;1.00;;;;;;;;;;5068423;28;20514;-80
2023/10/14 02:37:50;;;;;;;3.47;1.00;;;;;;;;;;5070932;28;20433;-81
2023/10/14 02:40:24;;;;;;;6.40;1.13;;;;;;;;;;5067212;28;20465;-80
2023/10/14 02:42:57;;;;;;;2.60;0.80;;;;;;;;;;5070887;28;20446;-81
2023/10/14 02:45:27;;;;;;;1.80;0.73;;;;;;;;;;5069969;28;20461;-81
2023/10/14 02:48:01;;;;;;;3.03;0.90;;;;;;;;;;5068111;28;20481;-80
2023/10/14 02:50:31;;;;;;;4.80;1.37;;;;;;;;;;5071769;28;20463;-80
2023/10/14 02:53:06;;;;;;;2.87;1.27;;;;;;;;;;5070174;28;20448;-79
2023/10/14 02:58:20;;;;;;;3.87;0.93;;;;;;;;;;5072982;28;20434;-80
2023/10/14 03:00:51;;;;;;;4.77;1.10;;;;;;;;;;5071296;28;20747;-81
2023/10/14 03:03:21;;;;;;;6.03;1.10;;;;;;;;;;5068345;28;20445;-81
2023/10/14 03:05:52;;;;;;;5.63;1.00;;;;;;;;;;5070427;28;20472;-80
2023/10/14 03:08:19;;;;;;;2.70;0.80;;;;;;;;;;5068857;28;20580;-80
2023/10/14 03:10:54;;;;;;;3.13;1.00;;;;;;;;;;5071479;28;20460;-78
2023/10/14 03:13:22;;;;;;;4.20;1.70;;;;;;;;;;5069457;28;20440;-80
2023/10/14 03:15:54;;;;;;;1.60;0.70;;;;;;;;;;5069550;28;20454;-80
2023/10/14 03:21:33;;;;;;;2.90;0.77;;;;;;;;;;5057157;28;20448;-79
2023/10/14 03:24:13;;;;;;;3.60;1.17;;;;;;;;;;5068254;28;20466;-79
2023/10/14 03:27:04;;;;;;;3.20;1.00;;;;;;;;;;5075311;28;20461;-78
2023/10/14 03:32:19;;;;;;;5.07;1.00;;;;;;;;;;5073210;28;20462;-79
2023/10/14 03:38:05;;;;;;;8.50;1.23;;;;;;;;;;5014328;28;20463;-78
2023/10/14 03:40:51;;;;;;;3.67;1.20;;;;;;;;;;5074208;28;20456;-78
2023/10/14 03:43:43;;;;;;;2.47;0.90;;;;;;;;;;5071880;28;20541;-79
2023/10/14 03:46:23;;;;;;;5.57;1.43;;;;;;;;;;5034636;28;20753;-80
2023/10/14 03:51:24;;;;;;;4.30;1.20;;;;;;;;;;5068488;28;20505;-79
2023/10/14 03:53:52;;;;;;;6.37;0.80;;;;;;;;;;5068319;28;20324;-80
2023/10/14 03:56:21;;;;;;;2.90;1.10;;;;;;;;;;5066526;28;20449;-79
2023/10/14 03:58:49;;;;;;;3.13;0.93;;;;;;;;;;5064863;28;20464;-78
2023/10/14 04:01:22;;;;;;;2.50;1.23;;;;;;;;;;5066394;28;20761;-80
2023/10/14 04:03:53;;;;;;;3.67;0.90;;;;;;;;;;5068720;28;20444;-78
2023/10/14 04:06:22;;;;;;;4.37;1.00;;;;;;;;;;5067936;28;20449;-79
2023/10/14 04:08:50;;;;;;;5.20;1.20;;;;;;;;;;5069282;28;20481;-81
2023/10/14 04:11:25;;;;;;;4.13;0.80;;;;;;;;;;5071418;28;20454;-79
2023/10/14 04:14:04;;;;;;;3.03;1.00;;;;;;;;;;5068809;28;20484;-79
2023/10/14 04:16:48;;;;;;;6.13;1.53;;;;;;;;;;5068600;28;20484;-79
2023/10/14 04:19:26;;;;;;;2.93;1.00;;;;;;;;;;5068596;28;20527;-80
2023/10/14 04:21:59;;;;;;;9.23;1.37;;;;;;;;;;5067267;28;20449;-79
2023/10/14 04:24:44;;;;;;;7.00;1.37;;;;;;;;;;5063519;28;20521;-80
2023/10/14 04:27:22;;;;;;;3.10;1.07;;;;;;;;;;5062664;28;20497;-80
2023/10/14 04:29:57;;;;;;;6.50;1.00;;;;;;;;;;5064670;28;20521;-80
2023/10/14 04:32:27;;;;;;;8.97;1.30;;;;;;;;;;5063748;28;20539;-81
2023/10/14 04:34:57;;;;;;;4.27;0.90;;;;;;;;;;5063987;28;20460;-80
2023/10/14 04:37:36;;;;;;;4.63;1.43;;;;;;;;;;5063470;28;20528;-78
2023/10/14 04:40:16;;;;;;;4.60;1.10;;;;;;;;;;5062454;28;20456;-79
2023/10/14 04:42:45;;;;;;;4.50;1.63;;;;;;;;;;5061040;28;20868;-80
2023/10/14 04:45:16;;;;;;;9.30;1.60;;;;;;;;;;5061581;28;20465;-80
2023/10/14 04:47:47;;;;;;;4.67;1.50;;;;;;;;;;5060741;28;20464;-79
2023/10/14 04:50:22;;;;;;;3.67;1.07;;;;;;;;;;5062543;28;20493;-80
2023/10/14 04:52:57;;;;;;;4.57;1.17;;;;;;;;;;5061380;28;20826;-80
2023/10/14 04:55:35;;;;;;;3.20;1.10;;;;;;;;;;5064681;28;20446;-80
2023/10/14 04:58:23;;;;;;;4.17;1.20;;;;;;;;;;5064683;28;20749;-81
2023/10/14 05:00:52;;;;;;;3.60;1.00;;;;;;;;;;5065018;28;20543;-78
2023/10/14 05:03:20;;;;;;;2.53;1.17;;;;;;;;;;5062762;28;20481;-80
2023/10/14 05:05:52;;;;;;;5.03;1.70;;;;;;;;;;5063934;28;20473;-81
2023/10/14 05:08:23;;;;;;;4.50;1.50;;;;;;;;;;5065048;28;20464;-79
2023/10/14 05:10:51;;;;;;;3.33;1.20;;;;;;;;;;5065368;28;20789;-79
2023/10/14 05:13:25;;;;;;;4.97;1.23;;;;;;;;;;5064490;28;20458;-81
2023/10/14 05:16:02;;;;;;;2.40;1.70;;;;;;;;;;5066934;28;20552;-81
2023/10/14 05:18:31;;;;;;;8.37;1.93;;;;;;;;;;5065754;28;20892;-81
2023/10/14 05:21:12;;;;;;;3.70;1.17;;;;;;;;;;5066906;28;20481;-81
2023/10/14 05:23:42;;;;;;;3.57;1.53;;;;;;;;;;5067429;28;20881;-79
2023/10/14 05:26:14;;;;;;;5.50;1.70;;;;;;;;;;5063576;28;20598;-81
2023/10/14 05:28:42;;;;;;;2.70;1.27;;;;;;;;;;5063406;28;20869;-80
2023/10/14 05:31:09;;;;;;;4.90;1.63;;;;;;;;;;5064215;28;20525;-80
2023/10/14 05:33:37;;;;;;;5.53;1.40;;;;;;;;;;5064747;28;21053;-81
2023/10/14 05:36:06;;;;;;;9.00;1.43;;;;;;;;;;5064467;28;20468;-80
2023/10/14 05:38:33;;;;;;;4.47;1.47;;;;;;;;;;5066498;28;20483;-78
2023/10/14 05:41:06;;;;;;;10.33;1.57;;;;;;;;;;5067199;28;20460;-80
2023/10/14 05:43:34;;;;;;;4.33;1.33;;;;;;;;;;5064247;28;20457;-81
2023/10/14 05:46:12;;;;;;;4.23;1.37;;;;;;;;;;5068869;28;20446;-80
2023/10/14 05:48:41;;;;;;;8.40;1.60;;;;;;;;;;5065767;28;20429;-80
2023/10/14 05:51:08;;;;;;;2.90;1.13;;;;;;;;;;5067279;28;20473;-79
2023/10/14 05:53:36;;;;;;;3.40;1.40;;;;;;;;;;5066366;28;20453;-81
2023/10/14 05:56:12;;;;;;;3.70;1.07;;;;;;;;;;5066442;28;20484;-80
2023/10/14 05:58:40;;;;;;;5.50;1.77;;;;;;;;;;5066046;28;20467;-80
2023/10/14 06:01:17;;;;;;;6.30;1.63;;;;;;;;;;5066358;28;20438;-80
2023/10/14 06:03:44;;;;;;;6.77;1.03;;;;;;;;;;5054927;28;20484;-78
2023/10/14 06:06:14;;;;;;;3.70;1.27;;;;;;;;;;5065911;28;20461;-78
2023/10/14 06:08:46;;;;;;;3.70;1.20;;;;;;;;;;5064283;28;20539;-79
2023/10/14 06:11:16;;;;;;;3.57;2.00;;;;;;;;;;5062800;28;20495;-79
2023/10/14 06:13:48;;;;;;;6.37;1.30;;;;;;;;;;5046614;28;20470;-80
2023/10/14 06:16:16;;;;;;;8.17;1.60;;;;;;;;;;5058580;28;20443;-78
2023/10/14 06:18:47;;;;;;;5.83;1.30;;;;;;;;;;5046466;28;20455;-80
2023/10/14 06:21:15;;;;;;;4.40;1.30;;;;;;;;;;5056147;28;20451;-81
2023/10/14 06:23:47;;;;;;;4.27;1.63;;;;;;;;;;5050149;28;20477;-77
2023/10/14 06:26:17;;;;;;;7.80;1.50;;;;;;;;;;5043964;28;20525;-80
2023/10/14 06:28:45;;;;;;;3.87;1.50;;;;;;;;;;5044867;28;20597;-80
2023/10/14 06:31:12;;;;;;;8.50;3.07;;;;;;;;;;5054594;28;20553;-78
2023/10/14 06:33:41;;;;;;;8.57;1.40;;;;;;;;;;5048135;28;20600;-78
2023/10/14 06:36:13;;;;;;;11.20;1.87;;;;;;;;;;5049941;28;20450;-78
2023/10/14 06:38:44;;;;;;;7.00;1.50;;;;;;;;;;5051734;28;20457;-80
2023/10/14 06:41:16;;;;;;;6.50;1.63;;;;;;;;;;5053341;28;20556;-80
2023/10/14 06:43:55;;;;;;;4.33;1.60;;;;;;;;;;5046204;28;20471;-79
2023/10/14 06:46:25;;;;;;;5.60;1.03;;;;;;;;;;5062547;28;20476;-80
2023/10/14 06:48:55;;;;;;;5.90;1.50;;;;;;;;;;5046228;28;20465;-78
2023/10/14 06:51:23;;;;;;;5.63;1.37;;;;;;;;;;5046184;28;20489;-81
2023/10/14 06:53:51;;;;;;;7.07;1.70;;;;;;;;;;5041800;28;20702;-80
2023/10/14 06:56:21;;;;;;;7.43;1.83;;;;;;;;;;5041801;28;20770;-80
2023/10/14 06:58:51;;;;;;;11.10;1.77;;;;;;;;;;5047772;28;20480;-78
2023/10/14 07:01:21;;;;;;;8.33;2.70;;;;;;;;;;5064797;28;20442;-79
2023/10/14 07:03:51;;;;;;;5.27;1.33;;;;;;;;;;5064943;28;20529;-79
2023/10/14 07:06:20;;;;;;;11.30;2.47;;;;;;;;;;5061378;28;20454;-80
2023/10/14 07:08:50;;;;;;;8.07;1.70;;;;;;;;;;5064345;28;21062;-77
2023/10/14 07:11:18;;;;;;;5.63;1.27;;;;;;;;;;5064872;28;20520;-79
2023/10/14 07:13:47;;;;;;;9.80;2.17;;;;;;;;;;5062074;28;20574;-79
2023/10/14 07:16:17;;;;;;;8.07;1.30;;;;;;;;;;5065423;28;20746;-80
2023/10/14 07:18:45;;;;;;;8.33;1.50;;;;;;;;;;5067101;28;20727;-79
2023/10/14 07:21:20;;;;;;;8.63;1.40;;;;;;;;;;5067985;28;20453;-79
2023/10/14 07:23:47;;;;;;;11.60;1.50;;;;;;;;;;5064560;28;20526;-80
2023/10/14 07:26:15;;;;;;;4.50;1.20;;;;;;;;;;5064717;28;20523;-81
2023/10/14 07:28:46;;;;;;;7.87;1.60;;;;;;;;;;5065759;28;20569;-79
2023/10/14 07:31:44;;;;;;;6.70;1.30;;;;;;;;;;5049929;28;20497;-79
2023/10/14 07:34:17;;;;;;;7.47;1.40;;;;;;;;;;5046859;28;20538;-78
2023/10/14 07:36:45;;;;;;;6.73;1.50;;;;;;;;;;5044446;28;20489;-79
2023/10/14 07:39:27;;;;;;;12.87;1.70;;;;;;;;;;5048702;28;20545;-79
2023/10/14 07:41:55;;;;;;;4.87;1.40;;;;;;;;;;5042360;28;20453;-78
2023/10/14 07:44:24;;;;;;;5.90;2.57;;;;;;;;;;5051788;28;20457;-78
2023/10/14 07:46:53;;;;;;;8.90;1.50;;;;;;;;;;5058292;28;20478;-79
2023/10/14 07:49:23;;;;;;;7.43;1.70;;;;;;;;;;5040446;28;20492;-79
2023/10/14 07:52:00;;;;;;;7.73;1.47;;;;;;;;;;5046779;28;20466;-79
2023/10/14 07:54:29;;;;;;;11.97;3.37;;;;;;;;;;5044202;28;20458;-80
2023/10/14 07:56:57;;;;;;;6.20;1.37;;;;;;;;;;5043459;28;20443;-79
2023/10/14 07:59:25;;;;;;;8.87;1.90;;;;;;;;;;5041520;28;20447;-79
2023/10/14 08:01:53;;;;;;;8.70;1.83;;;;;;;;;;5039459;28;20545;-79
2023/10/14 08:04:23;;;;;;;13.33;2.23;;;;;;;;;;5039778;28;21152;-79
2023/10/14 08:06:53;;;;;;;9.77;2.00;;;;;;;;;;5037686;28;20465;-79
2023/10/14 08:09:25;;;;;;;8.67;1.37;;;;;;;;;;5044711;28;20462;-79
2023/10/14 08:11:53;;;;;;;9.70;1.83;;;;;;;;;;5041825;28;20498;-79
2023/10/14 08:14:21;;;;;;;9.30;1.63;;;;;;;;;;5042104;28;20446;-79
2023/10/14 08:16:48;;;;;;;8.60;2.27;;;;;;;;;;5046411;28;20473;-80
2023/10/14 08:19:21;;;;;;;7.67;1.70;;;;;;;;;;5051208;28;20531;-79
2023/10/14 08:21:50;;;;;;;10.70;2.07;;;;;;;;;;5045821;28;20454;-78
2023/10/14 08:24:24;;;;;;;7.67;1.53;;;;;;;;;;5044046;28;20464;-77
2023/10/14 08:26:53;;;;;;;9.73;1.70;;;;;;;;;;5055074;28;20444;-79
2023/10/14 08:29:21;;;;;;;9.37;1.40;;;;;;;;;;5056153;28;20456;-79
2023/10/14 08:31:53;;;;;;;4.73;2.70;;;;;;;;;;5057929;28;20473;-79
2023/10/14 08:34:25;;;;;;;7.93;1.83;;;;;;;;;;5060524;28;20457;-78
2023/10/14 08:36:56;;;;;;;8.53;1.57;;;;;;;;;;5064186;28;20457;-80
2023/10/14 08:39:31;;;;;;;6.03;1.53;;;;;;;;;;5064256;28;20611;-79
2023/10/14 08:42:01;;;;;;;5.97;1.40;;;;;;;;;;5044292;28;20908;-80
2023/10/14 08:44:31;;;;;;;9.97;1.50;;;;;;;;;;5044349;28;20462;-80
2023/10/14 08:46:59;;;;;;;6.37;1.30;;;;;;;;;;5047040;28;20523;-79
2023/10/14 08:49:29;;;;;;;5.83;1.47;;;;;;;;;;5043175;28;20530;-79
2023/10/14 08:52:01;;;;;;;6.13;1.97;;;;;;;;;;5044424;28;20485;-79
2023/10/14 08:54:33;;;;;;;4.50;1.20;;;;;;;;;;5046331;28;20608;-80
2023/10/14 08:57:09;;;;;;;9.07;2.23;;;;;;;;;;5064894;28;20889;-79
2023/10/14 08:59:44;;;;;;;8.37;1.17;;;;;;;;;;5061868;28;20477;-79
2023/10/14 09:05:11;;;;;;;6.90;1.40;;;;;;;;;;5055086;28;20461;-78
2023/10/14 09:07:44;;;;;;;11.23;1.63;;;;;;;;;;5045086;28;20472;-78
2023/10/14 09:10:25;;;;;;;11.10;2.40;;;;;;;;;;5044612;28;20492;-80
2023/10/14 09:13:03;;;;;;;10.13;2.70;;;;;;;;;;5043457;28;20441;-79
2023/10/14 09:15:32;;;;;;;6.60;2.03;;;;;;;;;;5056010;28;20517;-80
2023/10/14 09:18:00;;;;;;;5.33;1.50;;;;;;;;;;5054564;28;20453;-81
2023/10/14 09:20:40;;;;;;;8.60;1.93;;;;;;;;;;5063009;28;20441;-79
2023/10/14 09:23:22;;;;;;;3.70;1.17;;;;;;;;;;5057061;28;20477;-78
2023/10/14 09:26:05;;;;;;;7.07;2.70;;;;;;;;;;5053499;28;20495;-79
2023/10/14 09:28:42;;;;;;;9.63;1.43;;;;;;;;;;5065978;28;20456;-78
2023/10/14 09:31:13;;;;;;;5.97;1.60;;;;;;;;;;5056818;28;20523;-78
2023/10/14 09:33:52;;;;;;;5.53;1.40;;;;;;;;;;5050658;28;20505;-79
2023/10/14 09:36:28;;;;;;;4.43;1.00;;;;;;;;;;5038360;28;20513;-81
2023/10/14 09:38:58;;;;;;;8.07;1.50;;;;;;;;;;5052471;28;20502;-79
2023/10/14 09:41:26;;;;;;;5.13;1.20;;;;;;;;;;5055986;28;20472;-80
2023/10/14 09:46:47;;;;;;;4.10;1.73;;;;;;;;;;5047435;28;20493;-79
2023/10/14 09:49:25;;;;;;;9.13;2.03;;;;;;;;;;5043266;28;20525;-80
2023/10/14 09:51:53;;;;;;;6.00;1.53;;;;;;;;;;5043581;28;20581;-80
2023/10/14 09:54:22;;;;;;;16.93;2.63;;;;;;;;;;5047336;28;20549;-80
2023/10/14 09:56:51;;;;;;;9.57;1.97;;;;;;;;;;5049644;28;20449;-79
2023/10/14 09:59:23;;;;;;;5.20;1.50;;;;;;;;;;5067237;28;20450;-80
2023/10/14 10:01:51;;;;;;;7.97;1.67;;;;;;;;;;5047610;28;20527;-79
2023/10/14 10:04:21;;;;;;;6.50;1.73;;;;;;;;;;5045388;28;20478;-79
2023/10/14 10:06:53;;;;;;;5.93;1.43;;;;;;;;;;5042164;28;20481;-79
2023/10/14 10:09:37;;;;;;;8.20;1.60;;;;;;;;;;5047015;28;20473;-81
2023/10/14 10:12:08;;;;;;;6.10;1.30;;;;;;;;;;5028264;28;20497;-80
2023/10/14 10:14:49;;;;;;;5.77;1.53;;;;;;;;;;5050264;28;20438;-79
2023/10/14 10:17:19;;;;;;;8.23;2.27;;;;;;;;;;5041070;28;20564;-79
2023/10/14 10:20:12;;;;;;;9.60;2.33;;;;;;;;;;5045284;28;20450;-80
2023/10/14 10:22:44;;;;;;;5.00;1.07;;;;;;;;;;5047913;28;20466;-78
2023/10/14 10:25:16;;;;;;;6.87;1.30;;;;;;;;;;5063641;28;20604;-77
2023/10/14 10:27:49;;;;;;;8.90;1.70;;;;;;;;;;5044446;28;20475;-79
2023/10/14 10:30:20;;;;;;;7.23;1.37;;;;;;;;;;5058181;28;20721;-79
2023/10/14 10:32:52;;;;;;;9.07;1.53;;;;;;;;;;5057476;28;20524;-80
2023/10/14 10:35:20;;;;;;;10.57;2.13;;;;;;;;;;5047604;28;20461;-80
2023/10/14 10:37:53;;;;;;;9.17;1.33;;;;;;;;;;5063213;28;20471;-78
2023/10/14 10:40:26;;;;;;;9.00;1.43;;;;;;;;;;5046326;28;20462;-80
2023/10/14 10:42:57;;;;;;;6.13;1.47;;;;;;;;;;5043516;28;20492;-80
2023/10/14 10:45:30;;;;;;;7.30;1.30;;;;;;;;;;5044419;28;20442;-81
2023/10/14 10:47:59;;;;;;;8.57;1.37;;;;;;;;;;5047667;28;20462;-81
2023/10/14 10:50:28;;;;;;;10.47;1.40;;;;;;;;;;5040757;28;20471;-79
2023/10/14 10:53:16;;;;;;;6.10;1.60;;;;;;;;;;5042179;28;20451;-82
2023/10/14 10:55:49;;;;;;;2.83;1.00;;;;;;;;;;5044034;28;21152;-78
2023/10/14 10:58:17;;;;;;;9.60;2.20;;;;;;;;;;5056282;28;20572;-78
2023/10/14 11:00:47;;;;;;;3.40;1.13;;;;;;;;;;5045043;28;20465;-80
2023/10/14 11:03:16;;;;;;;6.83;1.13;;;;;;;;;;5052955;28;20514;-78
2023/10/14 11:05:44;;;;;;;6.90;1.70;;;;;;;;;;5054553;28;20504;-78
2023/10/14 11:08:15;;;;;;;5.83;1.10;;;;;;;;;;5047840;28;20454;-80
2023/10/14 11:10:44;;;;;;;3.60;0.80;;;;;;;;;;5049365;28;20668;-78
2023/10/14 11:13:12;;;;;;;3.00;0.83;;;;;;;;;;5042614;28;21000;-79
2023/10/14 11:15:43;;;;;;;3.77;0.90;;;;;;;;;;5045743;28;20468;-79
2023/10/14 11:18:22;;;;;;;6.07;1.13;;;;;;;;;;5071981;28;20450;-78
2023/10/14 11:20:59;;;;;;;5.73;1.63;;;;;;;;;;5070761;28;20438;-78
2023/10/14 11:23:39;;;;;;;4.10;1.07;;;;;;;;;;5069557;28;20528;-79
2023/10/14 11:26:11;;;;;;;6.20;1.60;;;;;;;;;;5068158;28;20461;-80
2023/10/14 11:28:39;;;;;;;5.07;1.47;;;;;;;;;;5058890;28;20477;-82
2023/10/14 11:31:10;;;;;;;5.93;1.17;;;;;;;;;;5051209;28;20548;-81
2023/10/14 11:33:40;;;;;;;4.60;0.80;;;;;;;;;;5050471;28;20503;-78
2023/10/14 11:36:11;;;;;;;3.57;1.07;;;;;;;;;;5049107;28;20686;-79
2023/10/14 11:38:44;;;;;;;4.23;1.00;;;;;;;;;;5052500;28;20457;-80
2023/10/14 11:41:12;;;;;;;3.93;1.00;;;;;;;;;;5055259;28;20453;-79
2023/10/14 11:43:44;;;;;;;6.37;1.27;;;;;;;;;;5052346;28;20465;-79
2023/10/14 11:46:12;;;;;;;4.20;0.90;;;;;;;;;;5066110;28;20512;-80
2023/10/14 11:48:53;;;;;;;4.13;0.90;;;;;;;;;;5046580;28;20459;-79
2023/10/14 11:51:22;;;;;;;5.60;1.20;;;;;;;;;;5051290;28;20839;-81
2023/10/14 11:53:55;;;;;;;6.80;1.43;;;;;;;;;;5043129;28;20477;-79
2023/10/14 11:56:23;;;;;;;2.93;0.90;;;;;;;;;;5042400;28;20482;-78
2023/10/14 11:58:50;;;;;;;3.93;1.00;;;;;;;;;;5039583;28;20454;-79
2023/10/14 12:01:23;;;;;;;6.43;1.53;;;;;;;;;;5041079;28;20497;-78
2023/10/14 12:03:52;;;;;;;3.10;0.90;;;;;;;;;;5042508;28;20515;-79
2023/10/14 12:06:20;;;;;;;5.57;1.77;;;;;;;;;;5045071;28;20434;-79
2023/10/14 12:08:51;;;;;;;5.17;1.10;;;;;;;;;;5052028;28;20461;-78
2023/10/14 12:11:19;;;;;;;4.90;0.77;;;;;;;;;;5060815;28;20481;-77
2023/10/14 12:13:48;;;;;;;4.03;1.10;;;;;;;;;;5054981;28;20453;-79
2023/10/14 12:16:18;;;;;;;4.90;1.50;;;;;;;;;;5045967;28;20492;-79
2023/10/14 12:18:54;;;;;;;3.70;1.00;;;;;;;;;;5050272;28;20478;-77
2023/10/14 12:21:23;;;;;;;6.20;1.63;;;;;;;;;;5055587;28;20476;-80
2023/10/14 12:23:51;;;;;;;2.40;1.00;;;;;;;;;;5061695;28;20453;-79
2023/10/14 12:26:27;;;;;;;3.80;0.90;;;;;;;;;;5059544;28;20484;-78
2023/10/14 12:28:56;;;;;;;6.33;1.03;;;;;;;;;;5044890;28;20716;-77
2023/10/14 12:31:27;;;;;;;7.10;1.23;;;;;;;;;;5044784;28;20500;-82
2023/10/14 12:34:01;;;;;;;5.20;1.23;;;;;;;;;;5052430;28;20515;-79
2023/10/14 12:36:41;;;;;;;3.80;1.30;;;;;;;;;;5046173;28;20569;-79
2023/10/14 12:39:33;;;;;;;2.53;0.70;;;;;;;;;;5042432;28;20541;-79
2023/10/14 12:42:06;;;;;;;6.80;1.63;;;;;;;;;;5041998;28;20545;-79
2023/10/14 12:44:35;;;;;;;4.13;1.30;;;;;;;;;;5060541;28;20460;-79
2023/10/14 12:47:10;;;;;;;5.53;1.30;;;;;;;;;;5061987;28;20449;-80
2023/10/14 12:49:40;;;;;;;5.30;1.23;;;;;;;;;;5062985;28;20505;-78
2023/10/14 12:52:15;;;;;;;5.40;1.40;;;;;;;;;;5040849;28;20485;-78
2023/10/14 12:54:45;;;;;;;8.03;1.40;;;;;;;;;;5042675;28;20461;-79
2023/10/14 12:57:14;;;;;;;3.80;1.10;;;;;;;;;;5043133;28;20568;-79
2023/10/14 12:59:44;;;;;;;5.67;1.47;;;;;;;;;;5046669;28;20473;-79
2023/10/14 13:02:17;;;;;;;5.60;1.40;;;;;;;;;;5040205;28;20462;-81
2023/10/14 13:04:44;;;;;;;4.57;1.20;;;;;;;;;;5038752;28;20466;-79
2023/10/14 13:07:15;;;;;;;7.17;2.20;;;;;;;;;;5043999;28;20493;-79
2023/10/14 13:09:44;;;;;;;5.23;1.63;;;;;;;;;;5045701;28;20688;-78
2023/10/14 13:12:15;;;;;;;8.60;1.87;;;;;;;;;;5061438;28;20520;-80
2023/10/14 13:14:43;;;;;;;12.30;2.40;;;;;;;;;;5063972;28;20449;-79
2023/10/14 13:17:18;;;;;;;8.43;1.57;;;;;;;;;;5054184;28;20763;-78
2023/10/14 13:19:47;;;;;;;6.97;1.27;;;;;;;;;;5059572;28;20464;-80
2023/10/14 13:22:17;;;;;;;5.33;1.13;;;;;;;;;;5062679;28;20457;-79
2023/10/14 13:24:49;;;;;;;5.23;1.70;;;;;;;;;;5065442;28;20441;-80
2023/10/14 13:27:17;;;;;;;3.70;0.87;;;;;;;;;;5045359;28;20528;-79
2023/10/14 13:29:44;;;;;;;12.13;2.40;;;;;;;;;;5041786;28;20473;-80
2023/10/14 13:32:16;;;;;;;5.60;1.27;;;;;;;;;;5036558;28;20496;-81
2023/10/14 13:34:45;;;;;;;6.33;1.40;;;;;;;;;;5033982;28;20458;-80
2023/10/14 13:37:13;;;;;;;6.77;1.00;;;;;;;;;;5045330;28;20466;-78
2023/10/14 13:39:43;;;;;;;4.47;1.03;;;;;;;;;;5054199;28;20450;-79
2023/10/14 13:42:11;;;;;;;3.37;0.80;;;;;;;;;;5058785;28;20457;-80
2023/10/14 13:44:40;;;;;;;5.93;1.00;;;;;;;;;;5053019;28;20458;-80
2023/10/14 13:47:09;;;;;;;4.60;1.10;;;;;;;;;;5042592;28;20497;-78
2023/10/14 13:49:42;;;;;;;4.40;1.10;;;;;;;;;;5044506;28;20485;-79
2023/10/14 13:52:10;;;;;;;5.80;1.40;;;;;;;;;;5047384;28;21076;-80
2023/10/14 13:54:37;;;;;;;6.33;1.70;;;;;;;;;;5040168;28;20584;-79
2023/10/14 13:57:11;;;;;;;3.70;1.10;;;;;;;;;;5042912;28;20488;-78
2023/10/14 13:59:39;;;;;;;5.53;1.00;;;;;;;;;;5047723;28;20453;-78
2023/10/14 14:02:07;;;;;;;5.17;1.00;;;;;;;;;;5045546;28;20878;-79
2023/10/14 14:04:35;;;;;;;4.43;1.30;;;;;;;;;;5044700;28;20438;-79
2023/10/14 14:07:02;;;;;;;3.73;0.80;;;;;;;;;;5042449;28;20683;-81
2023/10/14 14:09:31;;;;;;;5.07;1.40;;;;;;;;;;5044497;28;20494;-77
2023/10/14 14:12:00;;;;;;;7.03;1.73;;;;;;;;;;5051289;28;20489;-81
2023/10/14 14:14:29;;;;;;;5.93;1.00;;;;;;;;;;5048530;28;20462;-79
2023/10/14 14:16:59;;;;;;;7.60;1.10;;;;;;;;;;5047641;28;20465;-79
2023/10/14 14:19:26;;;;;;;4.87;1.00;;;;;;;;;;5045427;28;20445;-78
2023/10/14 14:21:54;;;;;;;6.67;1.20;;;;;;;;;;5044158;28;20458;-79
2023/10/14 14:24:23;;;;;;;3.30;0.97;;;;;;;;;;5044197;28;20461;-80
2023/10/14 14:26:53;;;;;;;10.10;1.53;;;;;;;;;;5059876;28;20536;-79
2023/10/14 14:29:23;;;;;;;5.17;1.43;;;;;;;;;;5065174;28;20464;-81
2023/10/14 14:31:52;;;;;;;5.50;1.10;;;;;;;;;;5063226;28;20476;-79
2023/10/14 14:34:24;;;;;;;3.53;0.80;;;;;;;;;;5060412;28;20457;-82
2023/10/14 14:36:52;;;;;;;4.90;1.73;;;;;;;;;;5062317;28;20881;-80
2023/10/14 14:39:20;;;;;;;3.53;1.00;;;;;;;;;;5049568;28;20450;-79
2023/10/14 14:42:21;;;;;;;5.73;1.50;;;;;;;;;;5064060;28;20461;-78
2023/10/14 14:44:55;;;;;;;5.20;1.07;;;;;;;;;;5067492;28;20453;-79
2023/10/14 14:47:25;;;;;;;11.83;2.40;;;;;;;;;;5040170;28;20549;-79
2023/10/14 14:49:55;;;;;;;6.97;1.50;;;;;;;;;;5055350;28;20473;-79
2023/10/14 14:52:25;;;;;;;10.13;2.67;;;;;;;;;;5043808;28;20501;-79
2023/10/14 14:54:56;;;;;;;4.80;1.30;;;;;;;;;;5056282;28;20465;-78
2023/10/14 14:57:24;;;;;;;7.90;2.00;;;;;;;;;;5060230;28;20468;-80
2023/10/14 14:59:55;;;;;;;4.90;0.90;;;;;;;;;;5048776;28;20455;-79
2023/10/14 15:02:25;;;;;;;8.03;1.30;;;;;;;;;;5045445;28;20474;-78
2023/10/14 15:04:55;;;;;;;12.17;2.50;;;;;;;;;;5053957;28;20501;-78
2023/10/14 15:07:25;;;;;;;6.83;1.20;;;;;;;;;;5052289;28;20447;-79
2023/10/14 15:09:54;;;;;;;2.93;1.23;;;;;;;;;;5047725;28;20488;-78
2023/10/14 15:12:21;;;;;;;8.27;2.30;;;;;;;;;;5045081;28;20989;-81
2023/10/14 15:14:54;;;;;;;6.53;1.37;;;;;;;;;;5053778;28;20515;-80
2023/10/14 15:17:23;;;;;;;6.63;1.20;;;;;;;;;;5055087;28;20472;-80
2023/10/14 15:19:52;;;;;;;8.33;1.13;;;;;;;;;;5037565;28;20455;-80
2023/10/14 15:22:20;;;;;;;4.20;1.17;;;;;;;;;;5043261;28;20767;-80
2023/10/14 15:24:47;;;;;;;6.50;1.47;;;;;;;;;;5041941;28;20454;-79
2023/10/14 15:27:15;;;;;;;6.73;1.13;;;;;;;;;;5042837;28;20525;-80